createdAt,value
2023-05-12T00:00:47.935Z,96567.38
2023-05-12T00:02:09.526Z,96563.41
2023-05-12T00:03:14.728Z,96572.19
2023-05-12T00:04:21.162Z,96571.94
2023-05-12T00:05:26.262Z,96572.75
2023-05-12T00:06:31.818Z,96570.91
2023-05-12T00:07:36.144Z,96566.41
2023-05-12T00:08:41.720Z,96565.59
2023-05-12T00:09:45.984Z,96567.75
2023-05-12T00:10:51.506Z,96567.53
2023-05-12T00:11:55.951Z,96564.63
2023-05-12T00:13:02.467Z,96568.91
2023-05-12T00:14:07.834Z,96573.97
2023-05-12T00:15:13.791Z,96563.31
2023-05-12T00:16:19.880Z,96570.03
2023-05-12T00:17:28.443Z,96573.78
2023-05-12T00:18:33.958Z,96567.44
2023-05-12T00:19:42.150Z,96570.91
2023-05-12T00:20:47.789Z,96563.47
2023-05-12T00:21:54.513Z,96567.75
2023-05-12T00:22:58.544Z,96567.50
2023-05-12T00:24:04.422Z,96569.13
2023-05-12T00:25:08.907Z,96555.00
2023-05-12T00:26:14.838Z,96558.72
2023-05-12T00:27:20.088Z,96563.78
2023-05-12T00:28:26.094Z,96558.47
2023-05-12T00:29:30.087Z,96555.25
2023-05-12T00:30:35.709Z,96555.25
2023-05-12T00:31:39.897Z,96550.97
2023-05-12T00:32:48.427Z,96558.16
2023-05-12T00:33:52.933Z,96552.00
2023-05-12T00:34:58.085Z,96555.75
2023-05-12T00:36:04.824Z,96550.44
2023-05-12T00:37:10.399Z,96551.25
2023-05-12T00:38:15.671Z,96558.16
2023-05-12T00:39:20.839Z,96551.25
2023-05-12T00:40:24.916Z,96546.69
2023-05-12T00:41:30.455Z,96552.81
2023-05-12T00:42:38.137Z,96552.81
2023-05-12T00:43:43.185Z,96545.34
2023-05-12T00:44:48.582Z,96549.03
2023-05-12T00:45:55.120Z,96557.03
2023-05-12T00:47:00.520Z,96552.50
2023-05-12T00:48:09.231Z,96563.16
2023-05-12T00:49:15.096Z,96555.44
2023-05-12T00:50:21.656Z,96549.28
2023-05-12T00:51:27.456Z,96563.41
2023-05-12T00:52:33.647Z,96562.59
2023-05-12T00:53:49.170Z,96559.38
2023-05-12T00:54:57.023Z,96558.00
2023-05-12T00:56:03.014Z,96558.00
2023-05-12T00:57:08.530Z,96561.47
2023-05-12T00:58:14.208Z,96555.09
2023-05-12T00:59:20.894Z,96556.16
2023-05-12T01:00:25.349Z,96550.00
2023-05-12T01:01:32.032Z,96554.28
2023-05-12T01:02:36.971Z,96554.28
2023-05-12T01:03:44.001Z,96558.00
2023-05-12T01:04:49.861Z,96550.81
2023-05-12T01:06:03.772Z,96549.19
2023-05-12T01:07:14.736Z,96552.34
2023-05-12T01:08:20.407Z,96550.75
2023-05-12T01:09:26.028Z,96548.09
2023-05-12T01:10:31.882Z,96547.84
2023-05-12T01:11:36.698Z,96546.25
2023-05-12T01:12:42.630Z,96546.78
2023-05-12T01:13:47.638Z,96546.53
2023-05-12T01:14:55.962Z,96542.84
2023-05-12T01:16:03.495Z,96544.13
2023-05-12T01:17:13.967Z,96541.69
2023-05-12T01:18:20.842Z,96549.94
2023-05-12T01:19:39.913Z,96549.94
2023-05-12T01:20:45.126Z,96546.72
2023-05-12T01:21:50.721Z,96543.00
2023-05-12T01:22:56.790Z,96547.03
2023-05-12T01:24:09.468Z,96550.50
2023-05-12T01:25:15.857Z,96545.16
2023-05-12T01:26:23.342Z,96544.13
2023-05-12T01:27:28.986Z,96544.69
2023-05-12T01:28:34.980Z,96547.34
2023-05-12T01:29:40.311Z,96540.75
2023-05-12T01:30:47.185Z,96545.81
2023-05-12T01:31:51.927Z,96545.59
2023-05-12T01:32:57.689Z,96547.19
2023-05-12T01:34:02.089Z,96537.34
2023-05-12T01:35:07.678Z,96544.28
2023-05-12T01:36:11.758Z,96539.78
2023-05-12T01:37:17.313Z,96539.78
2023-05-12T01:38:21.379Z,96548.00
2023-05-12T01:39:27.108Z,96547.19
2023-05-12T01:40:31.312Z,96547.19
2023-05-12T01:41:38.873Z,96542.13
2023-05-12T01:42:44.087Z,96545.81
2023-05-12T01:43:50.821Z,96551.16
2023-05-12T01:44:54.519Z,96558.56
2023-05-12T01:45:59.872Z,96545.28
2023-05-12T01:47:05.310Z,96542.84
2023-05-12T01:48:11.125Z,96542.03
2023-05-12T01:49:15.774Z,96551.06
2023-05-12T01:50:22.204Z,96550.81
2023-05-12T01:51:26.293Z,96550.00
2023-05-12T01:52:32.828Z,96552.66
2023-05-12T01:53:37.624Z,96546.31
2023-05-12T01:54:42.950Z,96545.75
2023-05-12T01:55:47.873Z,96555.34
2023-05-12T01:56:55.331Z,96547.34
2023-05-12T01:58:00.803Z,96555.34
2023-05-12T01:59:06.481Z,96551.06
2023-05-12T02:00:11.150Z,96553.75
2023-05-12T02:01:30.610Z,96547.03
2023-05-12T02:02:35.479Z,96544.63
2023-05-12T02:03:42.844Z,96556.31
2023-05-12T02:04:47.105Z,96549.38
2023-05-12T02:05:52.742Z,96549.38
2023-05-12T02:06:58.030Z,96549.38
2023-05-12T02:08:04.086Z,96554.13
2023-05-12T02:09:09.224Z,96548.00
2023-05-12T02:10:14.884Z,96550.44
2023-05-12T02:11:19.428Z,96547.78
2023-05-12T02:12:26.604Z,96552.59
2023-05-12T02:13:32.808Z,96539.31
2023-05-12T02:14:38.646Z,96548.09
2023-05-12T02:15:43.286Z,96545.44
2023-05-12T02:16:53.068Z,96539.31
2023-05-12T02:17:59.526Z,96542.78
2023-05-12T02:19:06.168Z,96536.63
2023-05-12T02:20:12.887Z,96543.59
2023-05-12T02:21:18.383Z,96536.63
2023-05-12T02:22:25.983Z,96535.03
2023-05-12T02:23:30.545Z,96537.13
2023-05-12T02:24:35.834Z,96532.84
2023-05-12T02:25:41.165Z,96536.53
2023-05-12T02:26:46.864Z,96528.81
2023-05-12T02:27:52.147Z,96531.72
2023-05-12T02:28:58.176Z,96531.16
2023-05-12T02:30:02.560Z,96528.97
2023-05-12T02:31:08.184Z,96529.78
2023-05-12T02:32:12.984Z,96527.38
2023-05-12T02:33:19.074Z,96533.75
2023-05-12T02:34:24.762Z,96528.66
2023-05-12T02:35:31.413Z,96534.22
2023-05-12T02:36:38.568Z,96533.66
2023-05-12T02:37:42.730Z,96527.78
2023-05-12T02:38:48.742Z,96529.63
2023-05-12T02:39:53.132Z,96531.72
2023-05-12T02:40:58.906Z,96536.72
2023-05-12T02:42:03.857Z,96529.78
2023-05-12T02:43:10.527Z,96543.09
2023-05-12T02:44:14.848Z,96540.91
2023-05-12T02:45:19.514Z,96531.56
2023-05-12T02:46:23.754Z,96529.94
2023-05-12T02:47:32.000Z,96530.16
2023-05-12T02:48:37.590Z,96532.84
2023-05-12T02:49:43.965Z,96532.84
2023-05-12T02:50:48.099Z,96538.16
2023-05-12T02:51:53.923Z,96539.53
2023-05-12T02:52:58.859Z,96543.78
2023-05-12T02:54:04.999Z,96544.13
2023-05-12T02:55:09.475Z,96544.13
2023-05-12T02:56:15.802Z,96539.63
2023-05-12T02:57:20.639Z,96548.41
2023-05-12T02:58:27.125Z,96544.13
2023-05-12T02:59:32.011Z,96542.50
2023-05-12T03:00:42.246Z,96540.91
2023-05-12T03:01:52.748Z,96542.22
2023-05-12T03:03:01.457Z,96541.63
2023-05-12T03:04:10.361Z,96548.78
2023-05-12T03:05:17.284Z,96550.88
2023-05-12T03:06:25.517Z,96545.31
2023-05-12T03:07:37.079Z,96541.88
2023-05-12T03:08:45.077Z,96534.59
2023-05-12T03:09:50.602Z,96541.22
2023-05-12T03:10:55.529Z,96539.59
2023-05-12T03:12:01.155Z,96536.38
2023-05-12T03:13:05.293Z,96534.75
2023-05-12T03:14:13.173Z,96543.78
2023-05-12T03:15:18.665Z,96546.69
2023-05-12T03:16:24.856Z,96547.50
2023-05-12T03:17:29.801Z,96538.72
2023-05-12T03:18:34.873Z,96540.56
2023-05-12T03:19:38.804Z,96552.00
2023-05-12T03:20:44.464Z,96539.75
2023-05-12T03:21:48.797Z,96549.56
2023-05-12T03:22:53.754Z,96549.34
2023-05-12T03:23:58.298Z,96554.41
2023-05-12T03:25:04.235Z,96545.94
2023-05-12T03:26:08.558Z,96544.91
2023-05-12T03:27:14.576Z,96544.44
2023-05-12T03:28:19.198Z,96543.94
2023-05-12T03:29:27.037Z,96547.19
2023-05-12T03:30:30.945Z,96551.22
2023-05-12T03:31:36.649Z,96542.97
2023-05-12T03:32:41.264Z,96544.13
2023-05-12T03:33:46.720Z,96537.50
2023-05-12T03:34:51.223Z,96536.72
2023-05-12T03:35:57.320Z,96538.31
2023-05-12T03:37:02.243Z,96533.00
2023-05-12T03:38:06.864Z,96533.00
2023-05-12T03:39:11.937Z,96532.19
2023-05-12T03:40:19.823Z,96526.88
2023-05-12T03:41:25.903Z,96522.84
2023-05-12T03:42:29.630Z,96527.13
2023-05-12T03:43:35.097Z,96527.13
2023-05-12T03:44:41.150Z,96522.03
2023-05-12T03:45:47.366Z,96521.22
2023-05-12T03:46:51.938Z,96524.94
2023-05-12T03:47:57.573Z,96523.31
2023-05-12T03:49:02.685Z,96516.66
2023-05-12T03:50:09.497Z,96519.03
2023-05-12T03:51:13.929Z,96521.72
2023-05-12T03:52:20.085Z,96525.44
2023-05-12T03:53:23.991Z,96521.72
2023-05-12T03:54:29.098Z,96530.28
2023-05-12T03:55:33.016Z,96521.72
2023-05-12T03:56:38.975Z,96519.03
2023-05-12T03:57:43.368Z,96521.72
2023-05-12T03:58:48.705Z,96522.78
2023-05-12T03:59:54.855Z,96523.31
2023-05-12T04:01:02.078Z,96521.72
2023-05-12T04:02:08.828Z,96524.38
2023-05-12T04:03:12.630Z,96516.97
2023-05-12T04:04:18.245Z,96522.28
2023-05-12T04:05:22.396Z,96520.19
2023-05-12T04:06:27.980Z,96519.38
2023-05-12T04:07:32.347Z,96520.78
2023-05-12T04:08:41.881Z,96523.16
2023-05-12T04:09:47.110Z,96521.31
2023-05-12T04:10:53.586Z,96526.38
2023-05-12T04:11:57.918Z,96521.88
2023-05-12T04:13:04.232Z,96523.28
2023-05-12T04:14:09.296Z,96521.38
2023-05-12T04:15:16.291Z,96518.50
2023-05-12T04:16:21.822Z,96524.63
2023-05-12T04:17:27.423Z,96522.53
2023-05-12T04:18:32.302Z,96524.97
2023-05-12T04:19:38.569Z,96527.38
2023-05-12T04:20:43.667Z,96525.28
2023-05-12T04:21:49.689Z,96523.66
2023-05-12T04:22:54.321Z,96530.03
2023-05-12T04:23:59.620Z,96529.78
2023-05-12T04:25:04.200Z,96532.19
2023-05-12T04:26:09.930Z,96527.69
2023-05-12T04:27:14.420Z,96529.31
2023-05-12T04:28:19.874Z,96530.66
2023-05-12T04:29:24.505Z,96526.38
2023-05-12T04:30:31.928Z,96525.59
2023-05-12T04:31:36.911Z,96529.31
2023-05-12T04:32:42.126Z,96531.38
2023-05-12T04:33:48.102Z,96538.59
2023-05-12T04:34:56.760Z,96538.81
2023-05-12T04:36:03.922Z,96538.00
2023-05-12T04:37:10.670Z,96543.31
2023-05-12T04:38:15.049Z,96544.94
2023-05-12T04:39:21.014Z,96539.38
2023-05-12T04:40:28.263Z,96543.66
2023-05-12T04:41:33.440Z,96548.16
2023-05-12T04:42:38.648Z,96555.66
2023-05-12T04:44:54.315Z,96543.50
2023-05-12T04:46:01.950Z,96550.50
2023-05-12T04:47:05.705Z,96553.97
2023-05-12T04:48:11.665Z,96549.78
2023-05-12T04:49:18.439Z,96550.09
2023-05-12T04:50:24.337Z,96550.66
2023-05-12T04:51:32.563Z,96550.16
2023-05-12T04:52:38.889Z,96556.84
2023-05-12T04:53:44.755Z,96548.63
2023-05-12T04:54:49.766Z,96553.47
2023-05-12T04:55:53.475Z,96551.34
2023-05-12T04:56:58.594Z,96551.94
2023-05-12T04:58:04.163Z,96545.56
2023-05-12T04:59:11.183Z,96544.28
2023-05-12T05:00:16.522Z,96552.59
2023-05-12T05:01:26.107Z,96551.28
2023-05-12T05:02:30.288Z,96550.56
2023-05-12T05:03:35.664Z,96554.31
2023-05-12T05:04:40.250Z,96556.50
2023-05-12T05:05:46.672Z,96562.94
2023-05-12T05:06:50.368Z,96560.84
2023-05-12T05:07:56.101Z,96556.66
2023-05-12T05:09:02.158Z,96562.81
2023-05-12T05:10:09.004Z,96562.00
2023-05-12T05:11:13.560Z,96559.56
2023-05-12T05:12:19.736Z,96558.75
2023-05-12T05:13:24.302Z,96568.22
2023-05-12T05:14:29.570Z,96563.88
2023-05-12T05:15:34.592Z,96570.88
2023-05-12T05:16:42.228Z,96568.31
2023-05-12T05:17:50.620Z,96561.22
2023-05-12T05:18:58.318Z,96568.66
2023-05-12T05:20:09.250Z,96558.91
2023-05-12T05:21:18.301Z,96564.63
2023-05-12T05:22:22.288Z,96570.34
2023-05-12T05:23:28.570Z,96567.72
2023-05-12T05:24:34.201Z,96565.59
2023-05-12T05:25:40.400Z,96581.91
2023-05-12T05:26:45.170Z,96564.25
2023-05-12T05:27:51.498Z,96558.16
2023-05-12T05:28:56.089Z,96556.53
2023-05-12T05:30:02.254Z,96563.44
2023-05-12T05:31:08.457Z,96561.81
2023-05-12T05:32:15.835Z,96562.31
2023-05-12T05:33:21.847Z,96562.84
2023-05-12T05:34:26.933Z,96567.09
2023-05-12T05:35:33.163Z,96563.59
2023-05-12T05:36:39.360Z,96560.09
2023-05-12T05:37:45.066Z,96567.00
2023-05-12T05:38:50.040Z,96564.84
2023-05-12T05:39:55.145Z,96564.78
2023-05-12T05:41:00.068Z,96565.81
2023-05-12T05:42:06.647Z,96560.16
2023-05-12T05:43:12.100Z,96572.41
2023-05-12T05:44:18.020Z,96575.88
2023-05-12T05:45:23.839Z,96571.53
2023-05-12T05:46:29.024Z,96577.13
2023-05-12T05:47:38.103Z,96574.16
2023-05-12T05:48:43.873Z,96584.03
2023-05-12T05:49:48.395Z,96580.31
2023-05-12T05:50:55.215Z,96578.94
2023-05-12T05:52:00.135Z,96583.72
2023-05-12T05:53:05.013Z,96582.44
2023-05-12T05:54:11.399Z,96581.13
2023-05-12T05:55:16.102Z,96588.06
2023-05-12T05:56:24.797Z,96584.91
2023-05-12T05:57:30.408Z,96587.06
2023-05-12T05:58:36.483Z,96580.41
2023-05-12T05:59:40.968Z,96580.69
2023-05-12T06:00:48.364Z,96582.31
2023-05-12T06:01:54.660Z,96583.38
2023-05-12T06:03:01.697Z,96581.59
2023-05-12T06:04:08.331Z,96585.94
2023-05-12T06:05:14.525Z,96591.09
2023-05-12T06:06:19.799Z,96587.66
2023-05-12T06:07:24.663Z,96593.28
2023-05-12T06:08:30.790Z,96586.34
2023-05-12T06:09:38.860Z,96582.06
2023-05-12T06:10:47.220Z,96579.09
2023-05-12T06:11:52.912Z,96578.28
2023-05-12T06:12:58.878Z,96587.63
2023-05-12T06:14:05.135Z,96580.41
2023-05-12T06:15:13.402Z,96589.03
2023-05-12T06:16:19.809Z,96583.72
2023-05-12T06:17:31.263Z,96585.16
2023-05-12T06:18:44.585Z,96596.19
2023-05-12T06:19:53.302Z,96590.63
2023-05-12T06:21:01.833Z,96593.56
2023-05-12T06:22:10.847Z,96600.00
2023-05-12T06:23:18.801Z,96600.53
2023-05-12T06:24:28.972Z,96594.63
2023-05-12T06:25:38.572Z,96602.34
2023-05-12T06:26:47.154Z,96598.88
2023-05-12T06:27:55.388Z,96598.53
2023-05-12T06:29:03.479Z,96595.63
2023-05-12T06:30:15.791Z,96592.38
2023-05-12T06:31:24.056Z,96592.91
2023-05-12T06:32:33.011Z,96596.63
2023-05-12T06:33:41.186Z,96599.28
2023-05-12T06:34:49.867Z,96600.09
2023-05-12T06:35:58.396Z,96599.88
2023-05-12T06:37:04.913Z,96599.34
2023-05-12T06:38:13.871Z,96596.69
2023-05-12T06:39:21.308Z,96597.81
2023-05-12T06:40:29.147Z,96599.97
2023-05-12T06:41:37.939Z,96597.59
2023-05-12T06:42:44.403Z,96606.44
2023-05-12T06:43:52.468Z,96607.53
2023-05-12T06:44:59.166Z,96608.63
2023-05-12T06:46:06.895Z,96607.03
2023-05-12T06:47:13.227Z,96608.38
2023-05-12T06:48:21.019Z,96612.41
2023-05-12T06:49:29.490Z,96608.66
2023-05-12T06:50:35.988Z,96607.34
2023-05-12T06:51:41.607Z,96614.03
2023-05-12T06:52:48.345Z,96611.34
2023-05-12T06:53:53.689Z,96614.06
2023-05-12T06:55:00.688Z,96610.59
2023-05-12T06:56:07.097Z,96611.97
2023-05-12T06:57:13.127Z,96613.31
2023-05-12T06:58:20.384Z,96615.44
2023-05-12T06:59:26.639Z,96615.69
2023-05-12T07:00:32.457Z,96619.47
2023-05-12T07:01:37.299Z,96614.63
2023-05-12T07:02:42.153Z,96618.38
2023-05-12T07:03:48.351Z,96602.31
2023-05-12T07:04:54.892Z,96614.63
2023-05-12T07:06:02.827Z,96614.63
2023-05-12T07:07:07.556Z,96611.41
2023-05-12T07:08:14.046Z,96619.41
2023-05-12T07:09:20.246Z,96616.75
2023-05-12T07:10:25.996Z,96610.34
2023-05-12T07:11:29.790Z,96618.38
2023-05-12T07:12:34.893Z,96613.53
2023-05-12T07:13:40.538Z,96612.44
2023-05-12T07:14:45.005Z,96610.59
2023-05-12T07:15:50.804Z,96611.41
2023-05-12T07:16:55.212Z,96609.56
2023-05-12T07:18:01.219Z,96611.97
2023-05-12T07:19:10.194Z,96610.91
2023-05-12T07:20:17.071Z,96615.16
2023-05-12T07:21:22.713Z,96618.41
2023-05-12T07:22:28.025Z,96603.44
2023-05-12T07:23:35.228Z,96612.00
2023-05-12T07:24:43.057Z,96609.03
2023-05-12T07:25:48.763Z,96610.06
2023-05-12T07:26:56.694Z,96614.09
2023-05-12T07:28:01.961Z,96610.38
2023-05-12T07:29:14.017Z,96607.75
2023-05-12T07:30:19.188Z,96615.50
2023-05-12T07:31:23.622Z,96618.47
2023-05-12T07:32:29.190Z,96609.91
2023-05-12T07:33:35.963Z,96616.06
2023-05-12T07:34:40.532Z,96613.16
2023-05-12T07:35:50.079Z,96614.53
2023-05-12T07:36:55.752Z,96610.00
2023-05-12T07:37:59.570Z,96611.63
2023-05-12T07:39:04.971Z,96609.22
2023-05-12T07:40:09.714Z,96622.06
2023-05-12T07:41:16.299Z,96612.84
2023-05-12T07:42:21.402Z,96615.63
2023-05-12T07:43:27.736Z,96622.59
2023-05-12T07:44:36.135Z,96623.69
2023-05-12T07:45:42.493Z,96616.47
2023-05-12T07:46:47.210Z,96623.50
2023-05-12T07:47:54.050Z,96618.66
2023-05-12T07:49:01.339Z,96622.69
2023-05-12T07:50:07.948Z,96621.16
2023-05-12T07:51:17.878Z,96613.13
2023-05-12T07:52:23.007Z,96609.94
2023-05-12T07:53:29.473Z,96623.13
2023-05-12T07:54:34.060Z,96615.63
2023-05-12T07:55:39.697Z,96618.34
2023-05-12T07:56:47.210Z,96608.91
2023-05-12T07:57:52.390Z,96609.69
2023-05-12T07:58:58.680Z,96617.22
2023-05-12T08:00:05.969Z,96616.97
2023-05-12T08:01:13.040Z,96608.41
2023-05-12T08:02:19.298Z,96618.03
2023-05-12T08:03:23.373Z,96612.41
2023-05-12T08:04:30.814Z,96614.28
2023-05-12T08:05:36.365Z,96614.28
2023-05-12T08:06:42.570Z,96618.31
2023-05-12T08:07:48.550Z,96620.44
2023-05-12T08:08:52.480Z,96609.44
2023-05-12T08:09:57.088Z,96610.00
2023-05-12T08:11:01.294Z,96607.59
2023-05-12T08:12:07.433Z,96610.53
2023-05-12T08:13:13.086Z,96608.94
2023-05-12T08:14:18.729Z,96606.81
2023-05-12T08:15:30.052Z,96615.13
2023-05-12T08:16:34.561Z,96608.16
2023-05-12T08:17:40.775Z,96614.31
2023-05-12T08:18:45.590Z,96612.69
2023-05-12T08:19:49.697Z,96605.22
2023-05-12T08:20:55.055Z,96611.09
2023-05-12T08:22:02.569Z,96613.47
2023-05-12T08:23:07.924Z,96607.31
2023-05-12T08:24:13.146Z,96605.19
2023-05-12T08:25:22.696Z,96613.78
2023-05-12T08:26:32.115Z,96609.44
2023-05-12T08:27:35.843Z,96610.53
2023-05-12T08:28:41.986Z,96607.31
2023-05-12T08:29:46.706Z,96607.84
2023-05-12T08:30:52.092Z,96613.22
2023-05-12T08:31:58.094Z,96611.09
2023-05-12T08:33:03.992Z,96604.13
2023-05-12T08:34:12.876Z,96607.06
2023-05-12T08:35:18.998Z,96614.03
2023-05-12T08:36:28.086Z,96610.56
2023-05-12T08:37:34.845Z,96612.53
2023-05-12T08:38:40.755Z,96611.66
2023-05-12T08:39:47.002Z,96609.06
2023-05-12T08:41:07.431Z,96604.25
2023-05-12T08:42:25.555Z,96595.63
2023-05-12T08:43:39.935Z,96615.41
2023-05-12T08:44:46.809Z,96598.19
2023-05-12T08:45:58.592Z,96590.06
2023-05-12T08:47:06.131Z,96600.34
2023-05-12T08:48:13.902Z,96603.31
2023-05-12T08:49:23.322Z,96607.19
2023-05-12T08:50:33.756Z,96605.66
2023-05-12T08:51:40.672Z,96605.84
2023-05-12T08:52:47.986Z,96621.41
2023-05-12T08:53:55.691Z,96618.56
2023-05-12T08:55:17.914Z,96609.16
2023-05-12T08:57:35.414Z,96610.44
2023-05-12T08:58:42.541Z,96602.75
2023-05-12T08:59:51.122Z,96599.84
2023-05-12T09:00:55.400Z,96607.50
2023-05-12T09:02:05.379Z,96599.22
2023-05-12T09:03:14.948Z,96595.88
2023-05-12T09:04:21.183Z,96600.19
2023-05-12T09:05:26.497Z,96592.44
2023-05-12T09:06:35.136Z,96589.53
2023-05-12T09:07:44.102Z,96600.66
2023-05-12T09:08:57.469Z,96600.81
2023-05-12T09:10:07.333Z,96597.16
2023-05-12T09:11:16.204Z,96589.47
2023-05-12T09:12:22.649Z,96606.72
2023-05-12T09:13:35.805Z,96596.66
2023-05-12T09:14:43.730Z,96597.88
2023-05-12T09:15:52.292Z,96598.75
2023-05-12T09:17:04.772Z,96605.34
2023-05-12T09:18:09.716Z,96612.84
2023-05-12T09:19:15.965Z,96598.09
2023-05-12T09:20:31.723Z,96597.47
2023-05-12T09:21:39.838Z,96594.19
2023-05-12T09:22:46.625Z,96590.59
2023-05-12T09:23:58.849Z,96597.41
2023-05-12T09:25:17.962Z,96593.94
2023-05-12T09:26:26.493Z,96596.22
2023-05-12T09:27:33.707Z,96602.03
2023-05-12T09:28:40.609Z,96590.84
2023-05-12T09:29:58.946Z,96590.91
2023-05-12T09:31:15.357Z,96588.81
2023-05-12T09:32:35.189Z,96583.38
2023-05-12T09:33:45.051Z,96590.78
2023-05-12T09:34:55.461Z,96598.53
2023-05-12T09:36:01.941Z,96591.78
2023-05-12T09:37:10.481Z,96602.13
2023-05-12T09:38:16.315Z,96602.28
2023-05-12T09:39:30.588Z,96609.44
2023-05-12T09:40:36.759Z,96612.53
2023-05-12T09:41:43.438Z,96616.66
2023-05-12T09:42:47.694Z,96605.44
2023-05-12T09:43:56.872Z,96606.03
2023-05-12T09:45:04.329Z,96616.84
2023-05-12T09:46:13.636Z,96604.56
2023-05-12T09:47:24.521Z,96603.25
2023-05-12T09:48:36.160Z,96600.59
2023-05-12T09:49:55.337Z,96597.94
2023-05-12T09:50:59.958Z,96595.53
2023-05-12T09:52:09.241Z,96595.56
2023-05-12T09:53:15.981Z,96591.28
2023-05-12T09:54:31.053Z,96582.16
2023-05-12T09:55:35.140Z,96590.72
2023-05-12T09:56:44.562Z,96581.03
2023-05-12T09:57:51.796Z,96586.38
2023-05-12T09:58:59.999Z,96583.41
2023-05-12T10:00:13.846Z,96581.50
2023-05-12T10:01:28.555Z,96582.56
2023-05-12T10:02:37.660Z,96584.13
2023-05-12T10:03:44.577Z,96584.66
2023-05-12T10:04:54.028Z,96582.25
2023-05-12T10:06:05.010Z,96587.56
2023-05-12T10:07:15.120Z,96581.69
2023-05-12T10:08:27.229Z,96580.06
2023-05-12T10:09:39.527Z,96572.31
2023-05-12T10:10:49.322Z,96577.09
2023-05-12T10:11:54.162Z,96571.75
2023-05-12T10:12:59.287Z,96579.78
2023-05-12T10:14:03.432Z,96572.84
2023-05-12T10:15:09.896Z,96581.41
2023-05-12T10:16:14.908Z,96574.44
2023-05-12T10:17:23.519Z,96571.22
2023-05-12T10:18:29.385Z,96581.94
2023-05-12T10:19:39.244Z,96572.84
2023-05-12T10:20:45.653Z,96576.06
2023-05-12T10:21:53.545Z,96573.91
2023-05-12T10:23:00.741Z,96573.38
2023-05-12T10:24:08.302Z,96570.75
2023-05-12T10:25:17.029Z,96568.06
2023-05-12T10:26:30.628Z,96569.69
2023-05-12T10:27:38.335Z,96566.50
2023-05-12T10:28:52.670Z,96567.28
2023-05-12T10:29:57.740Z,96567.84
2023-05-12T10:31:05.913Z,96568.66
2023-05-12T10:32:11.407Z,96565.47
2023-05-12T10:33:27.742Z,96568.13
2023-05-12T10:34:38.291Z,96575.63
2023-05-12T10:35:49.329Z,96564.13
2023-05-12T10:36:55.955Z,96570.59
2023-05-12T10:38:06.618Z,96570.28
2023-05-12T10:39:15.923Z,96564.41
2023-05-12T10:40:27.422Z,96556.34
2023-05-12T10:41:34.678Z,96552.88
2023-05-12T10:42:40.924Z,96555.81
2023-05-12T10:43:53.223Z,96552.59
2023-05-12T10:45:00.455Z,96553.97
2023-05-12T10:46:21.012Z,96553.97
2023-05-12T10:47:27.603Z,96553.44
2023-05-12T10:48:33.314Z,96550.47
2023-05-12T10:49:43.148Z,96557.72
2023-05-12T10:50:56.956Z,96552.63
2023-05-12T10:52:09.959Z,96548.41
2023-05-12T10:53:50.239Z,96548.94
2023-05-12T10:55:04.852Z,96546.25
2023-05-12T10:56:11.993Z,96561.53
2023-05-12T10:57:22.700Z,96552.66
2023-05-12T10:58:27.437Z,96551.56
2023-05-12T10:59:33.804Z,96547.25
2023-05-12T11:00:55.930Z,96547.78
2023-05-12T11:02:03.968Z,96554.44
2023-05-12T11:03:18.893Z,96550.38
2023-05-12T11:04:27.498Z,96545.78
2023-05-12T11:05:39.063Z,96544.44
2023-05-12T11:06:47.166Z,96548.94
2023-05-12T11:07:55.586Z,96551.06
2023-05-12T11:09:05.025Z,96550.78
2023-05-12T11:10:15.432Z,96549.66
2023-05-12T11:11:25.148Z,96559.28
2023-05-12T11:12:33.766Z,96561.41
2023-05-12T11:13:40.690Z,96563.53
2023-05-12T11:14:47.893Z,96565.97
2023-05-12T11:15:57.697Z,96565.72
2023-05-12T11:17:04.441Z,96578.59
2023-05-12T11:18:10.696Z,96566.81
2023-05-12T11:19:16.408Z,96578.13
2023-05-12T11:20:26.736Z,96583.75
2023-05-12T11:21:35.130Z,96583.50
2023-05-12T11:22:45.662Z,96581.88
2023-05-12T11:23:53.429Z,96586.72
2023-05-12T11:25:14.155Z,96599.09
2023-05-12T11:26:22.496Z,96601.25
2023-05-12T11:27:33.802Z,96590.03
2023-05-12T11:28:45.008Z,96609.66
2023-05-12T11:29:59.738Z,96608.88
2023-05-12T11:31:09.084Z,96601.97
2023-05-12T11:32:17.782Z,96592.56
2023-05-12T11:33:28.276Z,96603.56
2023-05-12T11:34:40.219Z,96604.38
2023-05-12T11:35:50.657Z,96595.00
2023-05-12T11:36:58.834Z,96603.50
2023-05-12T11:38:16.535Z,96599.94
2023-05-12T11:39:22.741Z,96592.53
2023-05-12T11:40:27.266Z,96590.22
2023-05-12T11:41:33.616Z,96586.06
2023-05-12T11:42:38.357Z,96599.19
2023-05-12T11:43:43.749Z,96607.00
2023-05-12T11:44:51.522Z,96606.88
2023-05-12T11:46:06.354Z,96605.81
2023-05-12T11:47:23.785Z,96610.69
2023-05-12T11:48:48.380Z,96617.66
2023-05-12T11:50:36.561Z,96625.50
2023-05-12T11:51:50.653Z,96622.63
2023-05-12T11:53:10.539Z,96626.03
2023-05-12T11:54:56.111Z,96628.31
2023-05-12T11:56:16.974Z,96621.81
2023-05-12T11:57:30.416Z,96636.66
2023-05-12T11:58:36.080Z,96636.06
2023-05-12T11:59:41.476Z,96633.41
2023-05-12T12:00:48.390Z,96634.00
2023-05-12T12:01:54.650Z,96630.84
2023-05-12T12:03:12.383Z,96633.00
2023-05-12T12:04:18.163Z,96640.50
2023-05-12T12:05:22.987Z,96638.16
2023-05-12T12:06:31.279Z,96641.69
2023-05-12T12:07:37.135Z,96646.03
2023-05-12T12:08:52.570Z,96640.81
2023-05-12T12:09:57.299Z,96644.59
2023-05-12T12:11:04.830Z,96652.88
2023-05-12T12:12:10.574Z,96652.16
2023-05-12T12:13:23.050Z,96660.22
2023-05-12T12:14:26.909Z,96657.28
2023-05-12T12:15:40.140Z,96660.03
2023-05-12T12:16:47.743Z,96652.81
2023-05-12T12:17:54.372Z,96667.28
2023-05-12T12:19:00.674Z,96659.38
2023-05-12T12:20:05.759Z,96661.53
2023-05-12T12:21:10.424Z,96658.09
2023-05-12T12:22:17.100Z,96661.09
2023-05-12T12:23:23.972Z,96661.91
2023-05-12T12:24:27.708Z,96660.09
2023-05-12T12:25:32.321Z,96666.53
2023-05-12T12:26:39.674Z,96675.13
2023-05-12T12:27:44.489Z,96675.16
2023-05-12T12:28:52.245Z,96677.34
2023-05-12T12:29:56.719Z,96678.47
2023-05-12T12:31:04.544Z,96680.34
2023-05-12T12:32:11.284Z,96683.59
2023-05-12T12:33:16.861Z,96678.56
2023-05-12T12:34:23.661Z,96684.50
2023-05-12T12:35:28.936Z,96693.59
2023-05-12T12:36:35.751Z,96694.16
2023-05-12T12:37:40.055Z,96703.28
2023-05-12T12:38:51.245Z,96706.50
2023-05-12T12:39:57.637Z,96702.53
2023-05-12T12:41:02.778Z,96691.38
2023-05-12T12:42:08.459Z,96687.38
2023-05-12T12:43:13.611Z,96693.84
2023-05-12T12:44:20.639Z,96691.72
2023-05-12T12:45:26.710Z,96701.56
2023-05-12T12:46:33.263Z,96693.88
2023-05-12T12:47:39.422Z,96693.88
2023-05-12T12:48:45.666Z,96702.94
2023-05-12T12:49:52.248Z,96689.03
2023-05-12T12:51:00.749Z,96690.91
2023-05-12T12:52:06.898Z,96694.88
2023-05-12T12:53:13.497Z,96697.56
2023-05-12T12:54:18.751Z,96693.56
2023-05-12T12:55:23.526Z,96693.06
2023-05-12T12:56:28.621Z,96697.66
2023-05-12T12:57:34.574Z,96704.13
2023-05-12T12:58:40.496Z,96705.72
2023-05-12T12:59:47.211Z,96708.94
2023-05-12T13:00:53.226Z,96696.94
2023-05-12T13:02:00.771Z,96706.31
2023-05-12T13:03:06.144Z,96704.75
2023-05-12T13:04:10.222Z,96703.75
2023-05-12T13:05:19.348Z,96707.53
2023-05-12T13:06:25.500Z,96707.00
2023-05-12T13:07:30.054Z,96701.16
2023-05-12T13:08:35.978Z,96700.66
2023-05-12T13:09:41.788Z,96705.50
2023-05-12T13:10:47.118Z,96701.75
2023-05-12T13:11:52.365Z,96698.81
2023-05-12T13:12:57.836Z,96705.28